createdAt,value
2018-01-12T00:01:18.604Z,20
2018-01-12T00:16:18.509Z,18.3
2018-01-12T00:36:18.626Z,19.4
2018-01-12T00:51:18.717Z,19
2018-01-12T01:06:18.659Z,21.5
2018-01-12T01:41:18.672Z,26
2018-01-12T01:56:18.802Z,23.8
2018-01-12T02:11:18.658Z,20.3
2018-01-12T02:31:18.500Z,21.4
2018-01-12T02:46:18.511Z,20.6
2018-01-12T03:01:18.704Z,21.4
2018-01-12T03:21:20.099Z,20.9
2018-01-12T03:36:20.310Z,20.7
2018-01-12T03:51:20.302Z,17
2018-01-12T04:06:30.179Z,18.5
2018-01-12T04:26:20.310Z,20.1
2018-01-12T04:41:20.279Z,19
2018-01-12T04:56:20.588Z,18.7
2018-01-12T05:16:20.377Z,18.6
2018-01-12T05:31:20.200Z,21.2
2018-01-12T05:46:20.380Z,21.4
2018-01-12T06:01:20.472Z,21.8
2018-01-12T06:21:20.207Z,19.7
2018-01-12T06:36:20.359Z,19.1
2018-01-12T06:51:20.374Z,21.3
2018-01-12T07:11:20.472Z,22.3
2018-01-12T07:26:20.378Z,22
2018-01-12T07:41:20.240Z,22.9
2018-01-12T07:56:20.437Z,22.1
2018-01-12T08:16:20.593Z,24.1
2018-01-12T08:31:20.443Z,26.8
2018-01-12T08:46:20.520Z,24.3
2018-01-12T09:06:20.502Z,29.8
2018-01-12T09:21:20.566Z,27.4
2018-01-12T09:36:20.434Z,23.9
2018-01-12T09:51:20.435Z,26.1
2018-01-12T10:11:20.458Z,26.5
2018-01-12T10:26:20.440Z,24
2018-01-12T10:41:20.371Z,22.6
2018-01-12T11:01:20.457Z,21.9
2018-01-12T11:16:20.550Z,22.4
2018-01-12T11:31:22.442Z,21.4
2018-01-12T11:46:20.538Z,21.3
2018-01-12T12:06:20.549Z,21.8
2018-01-12T12:21:20.416Z,19.6
2018-01-12T12:36:20.892Z,22.2
2018-01-12T12:56:20.450Z,20.3
2018-01-12T13:11:20.675Z,22.3
2018-01-12T13:26:20.668Z,20
2018-01-12T13:41:20.473Z,21.1
2018-01-12T14:01:20.559Z,22.7
2018-01-12T14:16:20.698Z,23.3
2018-01-12T14:31:20.673Z,23.3
2018-01-12T14:51:20.943Z,20.2
2018-01-12T15:06:20.649Z,24.4
2018-01-12T15:21:20.482Z,21.5
2018-01-12T15:36:20.436Z,29.8
2018-01-12T15:56:20.492Z,25.4
2018-01-12T16:11:20.840Z,26.3
2018-01-12T16:26:20.650Z,23.8
2018-01-12T16:46:20.687Z,22.7
2018-01-12T17:01:21.173Z,25.6
2018-01-12T17:16:20.509Z,27.7
2018-01-12T17:31:20.473Z,29.1
2018-01-12T17:51:20.677Z,27.8
2018-01-12T18:06:20.562Z,27.3
2018-01-12T18:21:20.870Z,28.5
2018-01-12T18:41:20.821Z,28.3
2018-01-12T18:56:30.831Z,26.4
2018-01-12T19:11:20.682Z,26.4
2018-01-12T19:46:20.946Z,25.8
2018-01-12T20:01:22.011Z,27.9
2018-01-12T20:36:21.819Z,31.1
2018-01-12T21:06:20.841Z,25.3
2018-01-12T21:41:24.616Z,28.9
2018-01-12T21:56:21.695Z,30.8
2018-01-12T22:31:22.581Z,31.2
2018-01-12T22:46:23.227Z,28.8
2018-01-12T23:16:21.173Z,30.4
2018-01-12T23:36:21.251Z,31.9
